createdAt,value
2018-10-03T00:00:08.091Z,14.00
2018-10-03T00:02:36.429Z,14.00
2018-10-03T00:05:04.676Z,14.00
2018-10-03T00:07:32.977Z,14.00
2018-10-03T00:10:01.217Z,14.10
2018-10-03T00:12:29.464Z,14.10
2018-10-03T00:14:57.704Z,14.10
2018-10-03T00:17:25.923Z,14.10
2018-10-03T00:19:54.235Z,14.20
2018-10-03T00:22:22.476Z,14.20
2018-10-03T00:24:50.768Z,14.30
2018-10-03T00:27:19.076Z,14.30
2018-10-03T00:29:47.365Z,14.30
2018-10-03T00:32:15.603Z,14.30
2018-10-03T00:34:43.857Z,14.30
2018-10-03T00:37:12.116Z,14.40
2018-10-03T00:39:40.368Z,14.30
2018-10-03T00:42:08.639Z,14.20
2018-10-03T00:44:36.996Z,14.10
2018-10-03T00:47:05.424Z,14.10
2018-10-03T00:49:33.793Z,14.00
2018-10-03T00:52:02.044Z,14.00
2018-10-03T00:54:30.301Z,14.00
2018-10-03T00:56:58.506Z,14.10
2018-10-03T00:59:26.750Z,14.10
2018-10-03T01:01:55.004Z,14.00
2018-10-03T01:04:23.263Z,14.00
2018-10-03T01:06:51.519Z,14.00
2018-10-03T01:09:19.796Z,14.00
2018-10-03T01:11:48.049Z,14.10
2018-10-03T01:14:16.286Z,14.00
2018-10-03T01:16:44.604Z,14.00
2018-10-03T01:19:12.925Z,14.00
2018-10-03T01:21:41.271Z,13.90
2018-10-03T01:24:09.493Z,13.90
2018-10-03T01:26:37.740Z,13.90
2018-10-03T01:29:15.676Z,13.90
2018-10-03T01:31:43.936Z,14.00
2018-10-03T01:34:12.205Z,14.00
2018-10-03T01:36:40.420Z,13.90
2018-10-03T01:39:09.625Z,13.90
2018-10-03T01:41:38.220Z,13.90
2018-10-03T01:44:06.572Z,13.90
2018-10-03T01:46:34.861Z,14.00
2018-10-03T01:49:03.083Z,13.90
2018-10-03T01:51:31.731Z,13.90
2018-10-03T01:54:00.006Z,14.00
2018-10-03T01:56:28.235Z,13.90
2018-10-03T01:58:56.488Z,13.90
2018-10-03T02:01:24.769Z,13.90
2018-10-03T02:03:53.007Z,13.80
2018-10-03T02:06:21.297Z,13.80
2018-10-03T02:08:49.520Z,13.70
2018-10-03T02:11:17.782Z,13.70
2018-10-03T02:13:46.021Z,13.70
2018-10-03T02:16:14.283Z,13.70
2018-10-03T02:18:42.497Z,13.70
2018-10-03T02:21:10.768Z,13.70
2018-10-03T02:23:38.981Z,13.70
2018-10-03T02:26:07.244Z,13.70
2018-10-03T02:28:35.455Z,13.70
2018-10-03T02:31:03.676Z,13.70
2018-10-03T02:33:31.983Z,13.70
2018-10-03T02:36:00.279Z,13.70
2018-10-03T02:38:28.511Z,13.60
2018-10-03T02:40:56.793Z,13.60
2018-10-03T02:43:25.063Z,13.50
2018-10-03T02:45:53.310Z,13.50
2018-10-03T02:48:21.511Z,13.50
2018-10-03T02:50:49.762Z,13.50
2018-10-03T02:53:18.043Z,13.50
2018-10-03T02:55:46.319Z,13.40
2018-10-03T02:58:14.547Z,13.40
2018-10-03T03:00:42.799Z,13.30
2018-10-03T03:03:11.031Z,13.30
2018-10-03T03:05:39.285Z,13.40
2018-10-03T03:08:07.610Z,13.40
2018-10-03T03:10:35.877Z,13.40
2018-10-03T03:13:04.225Z,13.40
2018-10-03T03:15:32.527Z,13.40
2018-10-03T03:18:00.762Z,13.40
2018-10-03T03:20:29.014Z,13.50
2018-10-03T03:22:57.250Z,13.50
2018-10-03T03:25:25.548Z,13.50
2018-10-03T03:27:53.820Z,13.50
2018-10-03T03:30:22.063Z,13.40
2018-10-03T03:32:50.350Z,13.40
2018-10-03T03:35:18.725Z,13.50
2018-10-03T03:37:46.953Z,13.50
2018-10-03T03:40:15.172Z,13.50
2018-10-03T03:42:43.396Z,13.50
2018-10-03T03:45:11.705Z,13.50
2018-10-03T03:47:39.918Z,13.50
2018-10-03T03:50:08.160Z,13.50
2018-10-03T03:52:36.416Z,13.50
2018-10-03T03:55:04.748Z,13.50
2018-10-03T03:57:32.968Z,13.50
2018-10-03T04:00:01.224Z,13.40
2018-10-03T04:02:29.505Z,13.50
2018-10-03T04:04:57.758Z,13.40
2018-10-03T04:07:26.024Z,13.40
2018-10-03T04:09:54.264Z,13.40
2018-10-03T04:12:22.504Z,13.30
2018-10-03T04:14:50.780Z,13.40
2018-10-03T04:17:19.037Z,13.40
2018-10-03T04:19:47.301Z,13.40
2018-10-03T04:22:15.613Z,13.40
2018-10-03T04:24:43.907Z,13.40
2018-10-03T04:27:12.158Z,13.40
2018-10-03T04:29:40.437Z,13.40
2018-10-03T04:32:08.726Z,13.40
2018-10-03T04:34:36.989Z,13.40
2018-10-03T04:37:05.266Z,13.40
2018-10-03T04:39:33.541Z,13.40
2018-10-03T04:42:01.754Z,13.30
2018-10-03T04:44:30.124Z,13.30
2018-10-03T04:46:58.398Z,13.30
2018-10-03T04:49:26.671Z,13.20
2018-10-03T04:51:54.911Z,13.10
2018-10-03T04:54:23.168Z,13.10
2018-10-03T04:56:51.408Z,13.10
2018-10-03T04:59:19.634Z,13.20
2018-10-03T05:01:47.852Z,13.20
2018-10-03T05:04:16.102Z,13.20
2018-10-03T05:06:44.327Z,13.20
2018-10-03T05:09:12.562Z,13.20
2018-10-03T05:11:40.849Z,13.20
2018-10-03T05:14:09.040Z,13.20
2018-10-03T05:16:37.270Z,13.20
2018-10-03T05:19:05.511Z,13.10
2018-10-03T05:21:33.736Z,13.10
2018-10-03T05:24:02.001Z,13.00
2018-10-03T05:26:30.231Z,13.00
2018-10-03T05:28:58.634Z,12.90
2018-10-03T05:31:27.880Z,12.90
2018-10-03T05:33:56.105Z,12.90
2018-10-03T05:36:24.324Z,12.90
2018-10-03T05:38:52.569Z,12.90
2018-10-03T05:41:20.827Z,12.90
2018-10-03T05:43:49.088Z,12.90
2018-10-03T05:46:17.345Z,12.90
2018-10-03T05:48:45.541Z,12.70
2018-10-03T05:51:13.895Z,12.70
2018-10-03T05:53:42.118Z,12.70
2018-10-03T05:56:10.343Z,12.70
2018-10-03T05:58:38.689Z,12.60
2018-10-03T06:01:07.162Z,12.60
2018-10-03T06:03:35.403Z,12.60
2018-10-03T06:06:03.611Z,12.60
2018-10-03T06:08:31.916Z,12.70
2018-10-03T06:11:00.101Z,12.70
2018-10-03T06:13:28.372Z,12.70
2018-10-03T06:15:56.644Z,12.70
2018-10-03T06:18:24.867Z,12.70
2018-10-03T06:20:53.082Z,12.80
2018-10-03T06:23:21.364Z,12.90
2018-10-03T06:25:49.583Z,13.00
2018-10-03T06:28:17.828Z,13.10
2018-10-03T06:30:46.039Z,13.10
2018-10-03T06:33:14.284Z,13.20
2018-10-03T06:35:42.508Z,13.40
2018-10-03T06:38:10.762Z,13.30
2018-10-03T06:40:38.996Z,13.20
2018-10-03T06:43:07.250Z,13.30
2018-10-03T06:45:35.530Z,13.30
2018-10-03T06:48:03.770Z,13.40
2018-10-03T06:50:31.991Z,13.30
2018-10-03T06:53:00.310Z,13.40
2018-10-03T06:55:28.482Z,13.50
2018-10-03T06:57:56.650Z,13.60
2018-10-03T07:00:24.862Z,13.60
2018-10-03T07:02:53.082Z,13.60
2018-10-03T07:05:21.335Z,13.60
2018-10-03T07:07:49.572Z,13.80
2018-10-03T07:10:17.822Z,13.90
2018-10-03T07:12:46.088Z,13.90
2018-10-03T07:15:15.353Z,13.90
2018-10-03T07:17:43.590Z,13.90
2018-10-03T07:20:11.865Z,13.90
2018-10-03T07:22:40.048Z,14.00
2018-10-03T07:25:08.270Z,14.00
2018-10-03T07:27:36.549Z,13.90
2018-10-03T07:30:05.090Z,13.90
2018-10-03T07:32:33.397Z,13.90
2018-10-03T07:35:01.549Z,14.00
2018-10-03T07:37:29.744Z,14.00
2018-10-03T07:39:57.968Z,14.10
2018-10-03T07:42:26.243Z,14.20
2018-10-03T07:44:54.523Z,14.30
2018-10-03T07:47:22.720Z,14.30
2018-10-03T07:49:50.958Z,14.20
2018-10-03T07:52:19.240Z,14.20
2018-10-03T07:54:47.440Z,14.10
2018-10-03T07:57:15.716Z,14.20
2018-10-03T07:59:43.935Z,14.20
2018-10-03T08:02:12.178Z,14.30
2018-10-03T08:04:40.407Z,14.50
2018-10-03T08:07:08.655Z,14.40
2018-10-03T08:09:36.952Z,14.40
2018-10-03T08:12:05.187Z,14.60
2018-10-03T08:14:33.431Z,14.70
2018-10-03T08:17:01.659Z,14.80
2018-10-03T08:19:29.864Z,15.00
2018-10-03T08:21:58.136Z,15.00
2018-10-03T08:24:26.363Z,15.30
2018-10-03T08:26:54.587Z,15.60
2018-10-03T08:29:22.802Z,15.60
2018-10-03T08:31:50.987Z,15.50
2018-10-03T08:34:19.197Z,15.40
2018-10-03T08:36:47.429Z,15.70
2018-10-03T08:39:15.680Z,15.60
2018-10-03T08:41:43.942Z,15.60
2018-10-03T08:44:12.184Z,15.80
2018-10-03T08:46:40.480Z,16.00
2018-10-03T08:49:08.720Z,15.70
2018-10-03T08:51:36.940Z,15.70
2018-10-03T08:54:05.197Z,15.90
2018-10-03T08:56:33.395Z,16.60
2018-10-03T08:59:01.668Z,16.80
2018-10-03T09:01:29.915Z,17.00
2018-10-03T09:03:58.249Z,17.60
2018-10-03T09:06:26.494Z,17.70
2018-10-03T09:08:54.751Z,17.90
2018-10-03T09:11:22.983Z,17.60
2018-10-03T09:13:51.238Z,17.40
2018-10-03T09:16:19.509Z,17.60
2018-10-03T09:18:47.779Z,17.80
2018-10-03T09:21:16.057Z,17.70
2018-10-03T09:23:44.263Z,18.30
2018-10-03T09:26:12.480Z,19.10
2018-10-03T09:28:40.756Z,18.80
2018-10-03T09:31:09.042Z,19.30
2018-10-03T09:33:37.381Z,19.20
2018-10-03T09:36:05.631Z,19.90
2018-10-03T09:38:33.908Z,20.20
2018-10-03T09:41:02.132Z,20.30
2018-10-03T09:43:30.413Z,20.20
2018-10-03T09:46:00.837Z,20.80
2018-10-03T09:48:29.085Z,20.80
2018-10-03T09:50:57.327Z,20.50
2018-10-03T09:53:25.573Z,20.20
2018-10-03T09:55:53.846Z,20.60
2018-10-03T09:58:22.097Z,20.90
2018-10-03T10:00:55.760Z,21.30
2018-10-03T10:03:24.062Z,21.50
2018-10-03T10:05:52.333Z,20.90
2018-10-03T10:08:20.597Z,20.00
2018-10-03T10:10:48.852Z,20.10
2018-10-03T10:13:17.088Z,20.30
2018-10-03T10:15:45.350Z,19.70
2018-10-03T10:18:13.571Z,19.90
2018-10-03T10:20:41.847Z,19.60
2018-10-03T10:23:10.911Z,20.10
2018-10-03T10:25:39.181Z,20.20
2018-10-03T10:28:08.159Z,19.60
2018-10-03T10:30:36.364Z,19.50
2018-10-03T10:33:04.763Z,20.50
2018-10-03T10:35:32.900Z,21.10
2018-10-03T10:38:01.119Z,20.50
2018-10-03T10:40:29.518Z,19.50
2018-10-03T10:42:57.629Z,18.80
2018-10-03T10:45:25.847Z,18.60
2018-10-03T10:47:54.072Z,18.20
2018-10-03T10:50:22.323Z,17.80
2018-10-03T10:52:50.595Z,17.60
2018-10-03T10:55:18.788Z,17.70
2018-10-03T10:57:50.314Z,17.70
2018-10-03T11:00:18.549Z,17.30
2018-10-03T11:02:46.819Z,17.00
2018-10-03T11:05:15.045Z,16.80
2018-10-03T11:07:43.268Z,16.70
2018-10-03T11:10:11.489Z,16.70
2018-10-03T11:12:39.700Z,16.50
2018-10-03T11:15:07.944Z,16.70
2018-10-03T11:17:36.206Z,17.20
2018-10-03T11:20:04.515Z,18.20
2018-10-03T11:22:32.757Z,18.60
2018-10-03T11:25:01.002Z,19.30
2018-10-03T11:27:29.196Z,19.20
2018-10-03T11:29:57.412Z,19.00
2018-10-03T11:32:25.662Z,18.70
2018-10-03T11:34:53.922Z,19.10
2018-10-03T11:37:22.119Z,19.60
2018-10-03T11:39:50.337Z,19.20
2018-10-03T11:42:18.596Z,19.40
2018-10-03T11:44:46.864Z,20.30
2018-10-03T11:47:15.098Z,20.40
2018-10-03T11:49:43.369Z,20.40
2018-10-03T11:52:11.590Z,20.60
2018-10-03T11:54:39.788Z,19.80
2018-10-03T11:57:08.215Z,19.40
2018-10-03T11:59:36.454Z,18.60
2018-10-03T12:02:04.609Z,18.30
2018-10-03T12:04:32.827Z,18.50
2018-10-03T12:07:01.044Z,17.90
2018-10-03T12:09:29.286Z,18.20
2018-10-03T12:11:57.492Z,18.60
2018-10-03T12:14:25.674Z,19.50
2018-10-03T12:16:53.930Z,19.90
2018-10-03T12:19:22.178Z,20.30
2018-10-03T12:21:50.391Z,20.10
2018-10-03T12:24:18.624Z,19.80
2018-10-03T12:26:46.837Z,19.50
2018-10-03T12:29:15.110Z,19.00
2018-10-03T12:31:43.296Z,18.60
2018-10-03T12:34:11.529Z,18.60
2018-10-03T12:36:39.912Z,18.50
2018-10-03T12:39:09.204Z,18.60
2018-10-03T12:41:37.805Z,19.50
2018-10-03T12:44:06.375Z,19.60
2018-10-03T12:46:34.602Z,19.30
2018-10-03T12:49:02.847Z,18.80
2018-10-03T12:51:31.083Z,18.80
2018-10-03T12:53:59.298Z,18.90
2018-10-03T12:56:27.512Z,19.50
2018-10-03T12:58:55.768Z,20.30
2018-10-03T13:01:24.068Z,21.00
2018-10-03T13:03:52.304Z,20.60
2018-10-03T13:06:20.512Z,20.70
2018-10-03T13:08:48.740Z,19.90
2018-10-03T13:11:16.910Z,19.70
2018-10-03T13:13:45.134Z,19.30
2018-10-03T13:16:13.376Z,18.70
2018-10-03T13:18:41.642Z,18.80
2018-10-03T13:21:09.947Z,18.80
2018-10-03T13:23:38.195Z,18.80
2018-10-03T13:26:06.720Z,18.40
2018-10-03T13:28:34.956Z,18.20
2018-10-03T13:31:03.134Z,18.10
2018-10-03T13:33:31.373Z,17.70
2018-10-03T13:35:59.586Z,17.50
2018-10-03T13:38:27.818Z,18.00
2018-10-03T13:40:56.091Z,18.90
2018-10-03T13:43:24.254Z,19.90
2018-10-03T13:45:52.461Z,20.70
2018-10-03T13:48:20.756Z,20.40
2018-10-03T13:50:48.992Z,20.20
2018-10-03T13:53:17.223Z,20.00
2018-10-03T13:55:45.458Z,19.80
2018-10-03T13:58:13.725Z,19.70
2018-10-03T14:00:41.954Z,19.70
2018-10-03T14:03:10.182Z,19.00
2018-10-03T14:05:38.385Z,19.00
2018-10-03T14:08:06.972Z,18.60
2018-10-03T14:10:35.190Z,18.60
2018-10-03T14:13:03.467Z,18.50
2018-10-03T14:15:31.890Z,18.40
2018-10-03T14:18:00.120Z,18.30
2018-10-03T14:20:28.386Z,18.20
2018-10-03T14:22:56.603Z,18.00
2018-10-03T14:25:24.840Z,18.00
2018-10-03T14:27:53.079Z,18.20
2018-10-03T14:30:21.279Z,17.80
2018-10-03T14:32:49.582Z,17.60
2018-10-03T14:35:18.006Z,17.60
2018-10-03T14:37:46.252Z,17.50
2018-10-03T14:40:14.476Z,17.20
2018-10-03T14:42:42.701Z,17.30
2018-10-03T14:45:10.902Z,17.20
2018-10-03T14:47:39.131Z,17.20
2018-10-03T14:50:07.593Z,17.30
2018-10-03T14:52:35.912Z,17.30
2018-10-03T14:55:04.042Z,17.00
2018-10-03T14:57:32.256Z,17.00
2018-10-03T15:00:00.466Z,16.90
2018-10-03T15:02:28.709Z,16.70
2018-10-03T15:04:56.948Z,16.80
2018-10-03T15:07:25.188Z,16.90
2018-10-03T15:09:53.405Z,16.90
2018-10-03T15:12:21.632Z,17.00
2018-10-03T15:14:49.867Z,17.10
2018-10-03T15:17:18.104Z,17.00
2018-10-03T15:19:46.294Z,17.00
2018-10-03T15:22:14.500Z,17.10
2018-10-03T15:24:42.800Z,17.00
2018-10-03T15:27:11.072Z,17.00
2018-10-03T15:29:39.296Z,16.90
2018-10-03T15:32:07.495Z,17.00
2018-10-03T15:34:35.697Z,17.10
2018-10-03T15:37:04.143Z,17.20
2018-10-03T15:39:32.412Z,17.30
2018-10-03T15:42:00.716Z,17.20
2018-10-03T15:44:28.945Z,17.40
2018-10-03T15:46:57.201Z,17.40
2018-10-03T15:49:25.416Z,17.50
2018-10-03T15:51:53.711Z,17.60
2018-10-03T15:54:21.986Z,17.60
2018-10-03T15:56:50.260Z,17.50
2018-10-03T15:59:18.511Z,17.20
2018-10-03T16:01:46.712Z,17.30
2018-10-03T16:04:14.941Z,17.10
2018-10-03T16:06:43.171Z,17.00
2018-10-03T16:09:11.522Z,17.00
2018-10-03T16:11:40.321Z,16.90
2018-10-03T16:14:08.552Z,16.90
2018-10-03T16:16:36.816Z,16.90
2018-10-03T16:19:05.006Z,16.90
2018-10-03T16:21:33.238Z,16.90
2018-10-03T16:24:01.486Z,16.90
2018-10-03T16:26:29.911Z,17.00
2018-10-03T16:28:58.062Z,16.90
2018-10-03T16:31:26.325Z,16.90
2018-10-03T16:33:54.559Z,17.00
2018-10-03T16:36:22.823Z,16.90
2018-10-03T16:38:51.099Z,17.00
2018-10-03T16:41:19.249Z,17.00
2018-10-03T16:43:47.471Z,17.00
2018-10-03T16:46:15.727Z,17.00
2018-10-03T16:48:44.783Z,17.00
2018-10-03T16:51:13.265Z,17.00
2018-10-03T16:53:41.507Z,16.90
2018-10-03T16:56:09.728Z,17.00
2018-10-03T16:58:37.975Z,16.90
2018-10-03T17:01:06.240Z,16.90
2018-10-03T17:03:34.561Z,16.80
2018-10-03T17:06:02.777Z,16.70
2018-10-03T17:08:31.005Z,16.70
2018-10-03T17:10:59.216Z,16.70
2018-10-03T17:13:27.521Z,16.60
2018-10-03T17:15:55.751Z,16.50
2018-10-03T17:18:23.987Z,16.50
2018-10-03T17:20:52.227Z,16.40
2018-10-03T17:23:20.447Z,16.30
2018-10-03T17:25:48.760Z,16.20
2018-10-03T17:28:17.005Z,16.10
2018-10-03T17:30:45.243Z,16.10
2018-10-03T17:33:13.626Z,16.10
2018-10-03T17:35:41.856Z,16.00
2018-10-03T17:38:10.237Z,16.00
2018-10-03T17:40:38.566Z,15.90
2018-10-03T17:43:07.067Z,15.70
2018-10-03T17:45:35.389Z,15.70
2018-10-03T17:48:03.742Z,15.60
2018-10-03T17:50:32.121Z,15.60
2018-10-03T17:53:00.416Z,15.50
2018-10-03T17:55:28.608Z,15.50
2018-10-03T17:57:56.846Z,15.40
2018-10-03T18:00:25.158Z,15.40
2018-10-03T18:02:53.381Z,15.30
2018-10-03T18:05:21.589Z,15.20
2018-10-03T18:07:49.836Z,15.10
2018-10-03T18:10:18.061Z,15.00
2018-10-03T18:12:46.300Z,15.00
2018-10-03T18:15:14.531Z,14.90
2018-10-03T18:17:42.841Z,14.80
2018-10-03T18:20:11.122Z,14.70
2018-10-03T18:22:39.541Z,14.70
2018-10-03T18:25:07.816Z,14.70
2018-10-03T18:27:36.071Z,14.60
2018-10-03T18:30:04.589Z,14.60
2018-10-03T18:32:32.856Z,14.50
2018-10-03T18:35:01.079Z,14.30
2018-10-03T18:37:29.327Z,14.30
2018-10-03T18:39:57.591Z,14.20
2018-10-03T18:42:25.785Z,14.20
2018-10-03T18:44:54.156Z,14.20
2018-10-03T18:47:22.350Z,14.10
2018-10-03T18:49:50.582Z,14.00
2018-10-03T18:52:18.908Z,14.00
2018-10-03T18:54:47.311Z,14.00
2018-10-03T18:57:15.570Z,14.00
2018-10-03T18:59:43.794Z,13.90
2018-10-03T19:02:12.020Z,13.90
2018-10-03T19:04:40.236Z,13.80
2018-10-03T19:07:08.449Z,13.70
2018-10-03T19:09:36.812Z,13.80
2018-10-03T19:12:05.328Z,13.70
2018-10-03T19:14:33.477Z,13.70
2018-10-03T19:17:01.702Z,13.70
2018-10-03T19:19:29.941Z,13.60
2018-10-03T19:21:58.225Z,13.60
2018-10-03T19:24:26.460Z,13.60
2018-10-03T19:26:54.804Z,13.60
2018-10-03T19:29:23.083Z,13.50
2018-10-03T19:31:51.352Z,13.40
2018-10-03T19:34:19.527Z,13.30
2018-10-03T19:36:47.731Z,13.30
2018-10-03T19:39:15.927Z,13.20
2018-10-03T19:41:44.308Z,13.20
2018-10-03T19:44:12.642Z,13.30
2018-10-03T19:46:41.024Z,13.20
2018-10-03T19:49:09.261Z,13.20
2018-10-03T19:51:37.804Z,13.10
2018-10-03T19:54:05.985Z,13.00
2018-10-03T19:56:34.225Z,13.10
2018-10-03T19:59:02.557Z,13.10
2018-10-03T20:01:30.792Z,13.00
2018-10-03T20:03:59.044Z,13.00
2018-10-03T20:06:27.264Z,12.90
2018-10-03T20:08:55.500Z,12.90
2018-10-03T20:11:23.684Z,12.90
2018-10-03T20:13:52.014Z,12.90
2018-10-03T20:16:20.245Z,12.80
2018-10-03T20:18:48.507Z,12.80
2018-10-03T20:21:16.841Z,12.60
2018-10-03T20:23:44.999Z,12.60
2018-10-03T20:26:13.245Z,12.70
2018-10-03T20:28:41.477Z,12.60
2018-10-03T20:31:09.634Z,12.70
2018-10-03T20:33:37.905Z,12.60
2018-10-03T20:36:06.182Z,12.60
2018-10-03T20:38:34.412Z,12.60
2018-10-03T20:41:02.654Z,12.50
2018-10-03T20:43:30.909Z,12.50
2018-10-03T20:45:59.132Z,12.40
2018-10-03T20:48:27.346Z,12.40
2018-10-03T20:50:55.535Z,12.40
2018-10-03T20:53:23.758Z,12.40
2018-10-03T20:55:51.956Z,12.30
2018-10-03T20:58:20.189Z,12.20
2018-10-03T21:00:48.357Z,12.20
2018-10-03T21:03:16.584Z,12.20
2018-10-03T21:05:44.861Z,12.20
2018-10-03T21:08:13.156Z,12.20
2018-10-03T21:10:41.404Z,12.20
2018-10-03T21:13:09.609Z,12.20
2018-10-03T21:15:37.829Z,12.10
2018-10-03T21:18:06.059Z,12.10
2018-10-03T21:20:34.304Z,12.00
2018-10-03T21:23:02.568Z,11.90
2018-10-03T21:25:30.815Z,11.80
2018-10-03T21:27:59.019Z,11.80
2018-10-03T21:30:27.206Z,11.80
2018-10-03T21:32:55.476Z,11.80
2018-10-03T21:35:23.710Z,11.80
2018-10-03T21:37:51.951Z,11.70
2018-10-03T21:40:20.183Z,11.70
2018-10-03T21:42:48.482Z,11.70
2018-10-03T21:45:16.778Z,11.60
2018-10-03T21:47:44.973Z,11.70
2018-10-03T21:50:13.160Z,11.60
2018-10-03T21:52:41.376Z,11.60
2018-10-03T21:55:09.588Z,11.60
2018-10-03T21:57:37.829Z,11.60
2018-10-03T22:00:07.279Z,11.60
2018-10-03T22:02:35.512Z,11.50
2018-10-03T22:05:06.324Z,11.50
2018-10-03T22:07:34.584Z,11.50
2018-10-03T22:10:02.848Z,11.50
2018-10-03T22:12:31.099Z,11.40
2018-10-03T22:14:59.287Z,11.40
2018-10-03T22:17:27.496Z,11.40
2018-10-03T22:19:56.828Z,11.30
2018-10-03T22:22:25.055Z,11.30
2018-10-03T22:24:53.284Z,11.20
2018-10-03T22:27:21.508Z,11.20
2018-10-03T22:29:49.695Z,11.20
2018-10-03T22:32:17.911Z,11.10
2018-10-03T22:34:46.079Z,11.20
2018-10-03T22:37:14.297Z,11.10
2018-10-03T22:39:42.483Z,11.10
2018-10-03T22:42:10.749Z,11.00
2018-10-03T22:44:39.039Z,11.10
2018-10-03T22:47:07.458Z,11.10
2018-10-03T22:49:35.892Z,11.10
2018-10-03T22:52:04.091Z,11.10
2018-10-03T22:54:32.271Z,11.10
2018-10-03T22:57:00.499Z,11.10
2018-10-03T22:59:28.740Z,11.00
2018-10-03T23:01:56.952Z,11.00
2018-10-03T23:04:25.228Z,10.90
2018-10-03T23:06:53.429Z,10.90
2018-10-03T23:09:21.617Z,10.80
2018-10-03T23:11:49.799Z,10.80
2018-10-03T23:14:18.058Z,10.90
2018-10-03T23:16:46.316Z,10.80
2018-10-03T23:19:14.493Z,10.80
2018-10-03T23:21:42.800Z,10.70
2018-10-03T23:24:10.998Z,10.70
2018-10-03T23:26:39.215Z,10.80
2018-10-03T23:29:07.410Z,10.80
2018-10-03T23:31:35.649Z,10.70
2018-10-03T23:34:03.839Z,10.70
2018-10-03T23:36:32.072Z,10.70
2018-10-03T23:39:00.315Z,10.70
2018-10-03T23:41:28.525Z,10.70
2018-10-03T23:43:56.747Z,10.80
2018-10-03T23:46:24.990Z,10.80
2018-10-03T23:48:53.217Z,10.60
2018-10-03T23:51:21.408Z,10.50
2018-10-03T23:53:49.615Z,10.50
2018-10-03T23:56:17.825Z,10.40
2018-10-03T23:58:46.015Z,10.50
